AirNav   Everest Fuels
 
 1063 users online  

2MY4 Miller Airport
Clear Lake, Minnesota, USA

GOING TO CLEAR LAKE?


FAA INFORMATION EFFECTIVE 15 JULY 2021

Location

FAA Identifier: 2MY4
Lat/Long: 45-26-01.9300N 093-56-55.3700W
45-26.032167N 093-56.922833W
45.4338694,-93.9487139
(estimated)
Elevation: 987 ft. / 301 m (estimated)
From city: 2 miles E of CLEAR LAKE, MN
Time zone: UTC -5 (UTC -6 during Standard Time)
Zip code: 55319

Airport Operations

Airport use: Private use. Permission required prior to landing
Activation date: 01/2008
Control tower: no
ARTCC: MINNEAPOLIS CENTER
FSS: PRINCETON FLIGHT SERVICE STATION
Attendance: UNATNDD
Segmented circle: no

Airport Communications

WX ASOS at STC (8 nm NW): 112.1 (320-240-8781)
WX AWOS-3 at MGG (12 nm S): 128.325 (320-963-3300)
WX AWOS-3 at PNM (16 nm NE): 119.025 (763-389-0615)
WX AWOS-3 at CFE (17 nm S): 120.45 (763-684-0762)

Nearby radio navigation aids

VOR radial/distance  VOR name  Freq  Var
STCr143/8.3ST CLOUD VOR/DME112.1003E
DWNr039/29.8DARWIN VORTAC109.0007E
GEPr299/29.8GOPHER VORTAC117.3006E

 
NDB name  Hdg/Dist  Freq  Var  ID
HUSSK160/2.834203EST ... -
PRINCETON238/16.436803EPNM .--. -. --

Airport Services

Runway Information

Runway 11/29

Dimensions: 1200 x 70 ft. / 366 x 21 m
Surface: turf
RUNWAY 11  RUNWAY 29
Traffic pattern: leftleft
Obstructions: 30 ft. pline, 942 ft. from runwaynone

Airport Ownership and Management from official FAA records

Ownership: Privately-owned
Owner: ROY W. MILLER
TRIPLE R RANCH, 9241 100TH AVE.
CLEAR LAKE, MN 55319
Phone 320-743-2611
Manager: ROY W. MILLER
TRIPLE R RANCH, 9241 100TH AVE.
CLEAR LAKE, MN 55319
Phone 320-743-2611

Airport Operational Statistics

Aircraft based on the field: 1
Single engine airplanes: 1
    

Additional Remarks

FOR CD CTC MINNEAPOLIS ARTCC AT 651-463-5588.

Instrument Procedures

There are no published instrument procedures at 2MY4.

Some nearby airports with instrument procedures:

KSTC - St Cloud Regional Airport (8 nm NW)
KMGG - Maple Lake Municipal Airport-Bill Mavencamp Sr Field (12 nm S)
KPNM - Princeton Municipal Airport (16 nm NE)
KCFE - Buffalo Municipal Airport (17 nm S)
KCBG - Cambridge Municipal Airport (30 nm E)
 
Loc | Ops | Rwys | IFR | FBO | Links
Com | Nav | Svcs | Stats | Notes
Aerial photo
No photo
 
Sectional chart

 
Airport distance calculator
Flying to Miller Airport? Find the distance to fly.

From to 2MY4

Sunrise and sunset
Times for 28-Jul-2021
 Local
(UTC-5)
 Zulu
(UTC)
Morning civil twilight05:2210:22
Sunrise05:5610:56
Sunset20:4801:48
Evening civil twilight21:2302:23

Current date and time
Zulu (UTC)  29-Jul-2021 00:49:20
Local (UTC-5)  28-Jul-2021 19:49:20
 
METAR
KSTC 
8nm NW 
282353Z 23007KT 10SM CLR 33/26 A2980 RMK AO2 SLP091 T03280261 10328 20283 56021
KMGG 
12nm S 
290015Z AUTO 00000KT 10SM CLR 32/27 A2981 RMK AO2 T03230265
KPNM 
16nm NE 
290037Z AUTO 00000KT 10SM CLR 32/26 A2979 RMK AO2 LTG DSNT E
KCFE 
17nm S 
290035Z 10SM CLR 32/25 A2981 RMK AO2 T03220247
TAF
KSTC 
8nm NW 
282245Z 2823/2918 19009KT P6SM SCT250 FM290000 22010G17KT P6SM SCT090 BKN150 TEMPO 2900/2903 6SM -SHRA BR BKN050 FM290300 33008KT P6SM SCT250
NOTAMs
Click for the latest NOTAMs
NOTAMs are issued by the DoD/FAA and will open in a separate window not controlled by AirNav.

 

 
 

Would you like to see your business listed on this page?

 If your business provides an interesting product or service to pilots, flight crews, aircraft, or users of the Miller Airport, you should consider listing it here.  To start the listing process, click on the button below
 
Add a business
 

Other Pages about Miller Airport

Update a link
 
Copyright © AirNav, LLC. All rights reserved. Privacy Policy  Contact